Ana Sayfa
METAR-TAF:

METAR-TAF

Havaalanları :

Pekin Başkent Uluslararası Havalimanı

Pekin, Çin

Enlem: 39-56N, Boylam: 116-17E, yükseklik: 55 m

Güncel hava durumu gözlemi

Rapor saat 19:00 UTC de 17 dakika önce yapıldı.
Rüzgar güneydan 2 kt
Sıcaklık 4°C
Nem 56%
Basınç 1021 hPa
Görüş mesafesi 10 km veya daha fazla
1500 m altında bulut yok ve kümülonimbus yok

METAR: ZBAA 241900Z 17001MPS CAVOK 04/M04 Q1021 NOSIG

Saat: 03:17 (19:17 UTC)

Tahmin

Rapor saat 15:02 UTC de 4 saat ve 15 dakika önce yapıldı.
Ayın 24'si saat 18 UTC'den ayın 25'si saat 18 UTC'ye kadar geçerli Tahmin
Rüzgar doğudan 6 kt
Görüş mesafesi: 6000 m

TAF: ZBAA 241502Z 2418/2518 10003MPS 6000 NSC TX10/2507Z TN02/2421Z

4.000'den fazla havaalanı için hava durumu gözlemleri ve tahminleri (METAR ve TAF raporları).

Kullanılabilir istasyonlar harita üzerinde sarı ve kırmızı noktalarla gösterilir.

İstasyonun adını görmek için fareyi noktanın üzerinde gezdirin.

Sonrasında hava gözlem ve tahminlerini görmek için tıklayın.

Haritayı değiştirmek için: yaklaştırmak için siyah artı işaretli yeşil düğmeye ve uzaklaştırmak için de eksi işaretli düğmeye hızla tıklayın; bitişik haritalar için yeşil okları kullanın.


METAR-TAF: